Current Conditions
Clear
Conditions



Pressure
1011.92 (mb) - 29.88 (inHG)
Visibility

10.0 (km) - 6.2 (miles)
   Temperature
21  °C
70°F
13  °C
Dewpoint
60  %
 Humidity
   Wind Speed
2  km/h
1  kts
1  mph
0.4  m/s
   Wind Direction
 150°
South South
East
   Airport Data
LELN
Location Leon 15 km (9.32 mi)
Metar :LELN 030930Z AUTO 15001KT CAVOK 21/13 Q1012
Wed 3rd June 11:30 am
   Raw Metar Info
Raw METAR is the most common format in the world for the transmission of observational weather data. It is highly standardized through the International Civil Aviation Organization (ICAO), which allows it to be understood throughout most of the world.
   API Info
Data Provided by
https://www.checkwx.com/weather/LELN
   © Info
CSS/SVG/PHP scripts were developed by weather34.com for use in the weather34 template © 2015-2020

Guide Info provided by Metar-Wikipedia